Time;durP1;ratioP1;P1;durP2;ratioP2;P2;SDS_P1;SDS_P2;PMS_P1;PMS_P2;Temp;Humidity;BMP_temperature;BMP_pressure;BME280_temperature;BME280_humidity;BME280_pressure;Samples;Min_cycle;Max_cycle;Signal;HPM_P1;HPM_P2
2021/07/04 00:00:50;;;;;;;17.30;14.00;;;;;;;30.81;31.66;100776.25;5058341;28;20505;-50
2021/07/04 00:03:18;;;;;;;18.20;13.90;;;;;;;30.65;31.63;100776.03;5053730;28;20937;-46
2021/07/04 00:05:47;;;;;;;24.87;16.43;;;;;;;30.26;32.44;100785.63;5055005;28;20477;-45
2021/07/04 00:08:17;;;;;;;20.83;15.10;;;;;;;30.09;32.73;100786.28;5057093;28;20917;-45
2021/07/04 00:10:48;;;;;;;20.50;14.40;;;;;;;30.05;32.91;100782.84;5058144;28;20477;-47
2021/07/04 00:13:16;;;;;;;17.20;12.80;;;;;;;29.18;34.15;100775.47;5057220;28;20480;-46
2021/07/04 00:15:44;;;;;;;17.43;13.43;;;;;;;28.82;35.08;100770.53;5058158;28;20450;-49
2021/07/04 00:18:14;;;;;;;22.43;16.17;;;;;;;29.63;33.66;100776.50;5056938;28;20513;-50
2021/07/04 00:20:42;;;;;;;21.77;16.20;;;;;;;30.11;32.65;100779.13;5058061;28;20481;-53
2021/07/04 00:23:10;;;;;;;20.50;16.30;;;;;;;29.91;32.77;100779.88;5056745;28;20490;-45
2021/07/04 00:25:38;;;;;;;26.73;17.23;;;;;;;29.91;32.67;100777.22;5057637;28;20927;-45
2021/07/04 00:28:07;;;;;;;21.77;16.53;;;;;;;30.18;32.21;100771.75;5056703;28;20483;-46
2021/07/04 00:30:35;;;;;;;22.80;17.67;;;;;;;30.77;31.56;100772.00;5058090;28;20484;-46
2021/07/04 00:33:03;;;;;;;21.60;16.40;;;;;;;30.52;31.60;100766.81;5056372;28;20489;-46
2021/07/04 00:35:30;;;;;;;22.40;16.13;;;;;;;30.21;31.83;100774.28;5057636;28;20496;-45
2021/07/04 00:37:59;;;;;;;26.47;17.27;;;;;;;30.22;32.22;100770.72;5056797;28;20767;-46
2021/07/04 00:40:27;;;;;;;21.77;15.30;;;;;;;30.64;31.37;100774.28;5057992;28;20490;-45
2021/07/04 00:42:55;;;;;;;22.33;15.23;;;;;;;30.42;31.57;100763.69;5056487;28;20479;-45
2021/07/04 00:45:25;;;;;;;28.97;15.77;;;;;;;30.25;32.01;100772.38;5057404;28;20491;-46
2021/07/04 00:47:54;;;;;;;17.87;13.40;;;;;;;30.14;32.28;100764.84;5055962;28;20559;-45
2021/07/04 00:50:23;;;;;;;20.43;15.00;;;;;;;30.01;32.51;100765.31;5038921;28;20667;-47
2021/07/04 00:52:52;;;;;;;23.33;16.80;;;;;;;30.07;32.52;100760.63;5036372;28;20485;-45
2021/07/04 00:55:20;;;;;;;20.27;15.03;;;;;;;30.28;31.94;100757.16;5037539;28;20458;-45
2021/07/04 00:57:48;;;;;;;20.40;14.70;;;;;;;30.19;31.59;100757.50;5036330;28;20488;-44
2021/07/04 01:00:18;;;;;;;20.90;14.80;;;;;;;29.82;32.69;100753.66;5037318;28;20491;-45
2021/07/04 01:02:47;;;;;;;18.13;14.63;;;;;;;30.24;31.91;100755.53;5036139;28;20499;-46
2021/07/04 01:05:17;;;;;;;20.33;14.93;;;;;;;30.16;32.18;100747.00;5037175;28;20488;-45
2021/07/04 01:07:46;;;;;;;18.83;13.83;;;;;;;29.92;32.17;100752.34;5035948;28;20492;-48
2021/07/04 01:10:15;;;;;;;22.30;15.30;;;;;;;30.03;32.03;100750.13;5037281;28;20479;-47
2021/07/04 01:12:46;;;;;;;17.00;13.07;;;;;;;30.11;32.03;100746.34;5036031;28;20767;-46
2021/07/04 01:15:17;;;;;;;18.60;13.60;;;;;;;30.22;32.00;100754.75;5037055;28;20489;-45
2021/07/04 01:17:45;;;;;;;19.87;14.47;;;;;;;30.02;32.41;100753.72;5035613;28;20492;-46
2021/07/04 01:20:16;;;;;;;19.90;13.60;;;;;;;29.83;32.40;100750.06;5037201;28;20481;-48
2021/07/04 01:22:54;;;;;;;17.00;13.03;;;;;;;29.80;32.67;100753.72;5035728;28;20926;-46
2021/07/04 01:25:21;;;;;;;17.90;12.53;;;;;;;29.27;33.26;100752.16;5036802;28;20520;-50
2021/07/04 01:27:49;;;;;;;18.27;12.50;;;;;;;29.47;33.15;100749.63;5035703;28;20485;-45
2021/07/04 01:30:18;;;;;;;17.80;12.60;;;;;;;29.68;32.79;100752.38;5036971;28;20499;-45
2021/07/04 01:32:46;;;;;;;16.57;12.50;;;;;;;29.69;32.39;100745.28;5035600;28;20486;-46
2021/07/04 01:35:14;;;;;;;14.87;11.80;;;;;;;29.32;32.86;100751.03;5036843;28;20460;-48
2021/07/04 01:37:42;;;;;;;16.90;11.70;;;;;;;29.12;33.53;100751.81;5035215;28;20486;-45
2021/07/04 01:40:12;;;;;;;18.23;12.03;;;;;;;29.21;33.52;100747.91;5036576;28;20478;-47
2021/07/04 01:42:42;;;;;;;16.67;12.30;;;;;;;29.61;33.11;100750.91;5035610;28;20493;-45
2021/07/04 01:45:13;;;;;;;14.73;10.50;;;;;;;29.28;33.44;100746.78;5035849;28;20461;-45
2021/07/04 01:47:43;;;;;;;17.23;11.83;;;;;;;29.20;33.79;100740.88;5035183;28;20557;-47
2021/07/04 01:50:13;;;;;;;14.23;10.63;;;;;;;28.98;34.10;100731.06;5036461;28;20478;-47
2021/07/04 01:52:40;;;;;;;18.40;11.90;;;;;;;28.79;34.40;100730.78;5035272;28;20819;-47
2021/07/04 01:55:12;;;;;;;15.13;11.80;;;;;;;28.67;34.39;100730.31;5033902;28;20930;-47
2021/07/04 01:57:40;;;;;;;19.63;11.70;;;;;;;28.84;34.04;100734.16;5034985;28;20535;-46
2021/07/04 02:00:10;;;;;;;13.87;11.00;;;;;;;29.22;33.64;100734.59;5036112;28;20510;-46
2021/07/04 02:02:39;;;;;;;15.67;11.47;;;;;;;29.62;32.65;100729.59;5035205;28;20489;-45
2021/07/04 02:05:08;;;;;;;14.80;10.77;;;;;;;29.20;33.09;100731.13;5038619;28;20466;-47
2021/07/04 02:07:35;;;;;;;16.07;12.00;;;;;;;29.20;33.85;100735.56;5034620;28;20489;-45
2021/07/04 02:10:05;;;;;;;16.47;12.17;;;;;;;28.75;34.41;100730.03;5038740;28;21063;-46
2021/07/04 02:12:35;;;;;;;15.10;11.80;;;;;;;29.09;33.91;100728.00;5034907;28;20800;-45
2021/07/04 02:15:09;;;;;;;17.20;11.90;;;;;;;28.76;34.06;100729.13;5036203;28;20459;-45
2021/07/04 02:17:36;;;;;;;13.87;11.37;;;;;;;28.95;33.85;100737.34;5034579;28;20480;-46
2021/07/04 02:20:17;;;;;;;14.83;11.73;;;;;;;29.19;33.45;100741.81;5035872;28;20493;-48
2021/07/04 02:22:45;;;;;;;16.60;12.00;;;;;;;29.34;33.28;100737.72;5034716;28;20487;-45
2021/07/04 02:25:12;;;;;;;13.20;10.53;;;;;;;29.25;33.55;100736.28;5035338;28;20460;-48
2021/07/04 02:27:41;;;;;;;14.67;12.00;;;;;;;29.31;32.98;100728.06;5034231;28;20484;-45
2021/07/04 02:30:10;;;;;;;18.97;11.60;;;;;;;29.53;33.30;100729.06;5035851;28;20488;-45
2021/07/04 02:32:38;;;;;;;16.13;11.80;;;;;;;29.49;32.95;100734.50;5034420;28;20480;-45
2021/07/04 02:35:07;;;;;;;16.63;11.67;;;;;;;29.93;32.56;100738.13;5035680;28;20460;-46
2021/07/04 02:37:35;;;;;;;15.50;12.23;;;;;;;29.70;32.85;100741.72;5034022;28;20487;-48
2021/07/04 02:40:03;;;;;;;17.30;12.33;;;;;;;29.62;32.41;100734.91;5036308;28;20519;-45
2021/07/04 02:42:31;;;;;;;12.30;10.90;;;;;;;29.65;32.53;100737.44;5036585;28;20567;-44
2021/07/04 02:45:01;;;;;;;14.70;11.97;;;;;;;29.22;32.93;100737.25;5035737;28;20449;-45
2021/07/04 02:47:29;;;;;;;14.23;11.33;;;;;;;28.69;33.97;100736.44;5033471;28;20934;-45
2021/07/04 02:49:57;;;;;;;14.47;10.80;;;;;;;29.32;33.38;100739.56;5035578;28;20477;-44
2021/07/04 02:52:24;;;;;;;14.70;10.70;;;;;;;29.74;32.33;100746.00;5034234;28;20578;-47
2021/07/04 02:54:52;;;;;;;17.00;11.50;;;;;;;29.55;32.49;100737.84;5035679;28;20471;-50
2021/07/04 02:57:20;;;;;;;12.47;9.93;;;;;;;29.04;33.02;100746.75;5033830;28;20567;-45
2021/07/04 02:59:47;;;;;;;11.00;9.53;;;;;;;28.42;34.51;100741.78;5035434;28;20492;-46
2021/07/04 03:02:16;;;;;;;13.50;10.30;;;;;;;28.48;34.68;100735.38;5034285;28;20491;-48
2021/07/04 03:04:44;;;;;;;13.70;10.50;;;;;;;29.16;33.24;100742.78;5035397;28;20457;-45
2021/07/04 03:07:11;;;;;;;13.73;10.33;;;;;;;29.18;33.23;100743.63;5033579;28;20942;-48
2021/07/04 03:09:40;;;;;;;15.67;10.20;;;;;;;29.41;32.78;100739.22;5035495;28;20479;-48
2021/07/04 03:12:07;;;;;;;14.23;10.70;;;;;;;29.08;33.24;100736.91;5034175;28;20476;-45
2021/07/04 03:14:35;;;;;;;12.20;9.33;;;;;;;28.52;34.47;100734.38;5035357;28;20464;-46
2021/07/04 03:17:03;;;;;;;12.93;10.03;;;;;;;28.61;34.40;100737.63;5033757;28;20483;-44
2021/07/04 03:19:32;;;;;;;11.47;9.37;;;;;;;28.72;34.19;100727.50;5035454;28;20483;-45
2021/07/04 03:22:00;;;;;;;13.10;9.40;;;;;;;29.09;33.43;100733.31;5033377;28;20480;-45
2021/07/04 03:24:27;;;;;;;12.37;8.90;;;;;;;28.52;34.43;100731.72;5035347;28;20461;-47
2021/07/04 03:26:55;;;;;;;13.00;9.20;;;;;;;28.73;34.45;100728.34;5033628;28;20482;-47
2021/07/04 03:29:23;;;;;;;21.50;15.00;;;;;;;28.77;34.30;100727.34;5034943;28;20481;-48
2021/07/04 03:31:50;;;;;;;15.33;11.20;;;;;;;29.01;33.98;100730.06;5033748;28;20800;-45
2021/07/04 03:34:18;;;;;;;11.37;9.03;;;;;;;29.18;33.74;100725.03;5035389;28;20460;-44
2021/07/04 03:36:47;;;;;;;13.40;10.10;;;;;;;29.68;32.78;100725.81;5033711;28;20492;-45
2021/07/04 03:39:15;;;;;;;12.97;10.00;;;;;;;29.87;31.97;100730.41;5035067;28;20499;-46
2021/07/04 03:41:42;;;;;;;13.30;10.13;;;;;;;29.89;32.08;100734.72;5033918;28;20477;-46
2021/07/04 03:44:10;;;;;;;12.57;9.73;;;;;;;29.82;32.30;100729.75;5035119;28;20809;-48
2021/07/04 03:46:37;;;;;;;13.53;9.67;;;;;;;30.22;31.39;100719.28;5033266;28;20493;-47
2021/07/04 03:49:05;;;;;;;14.03;9.70;;;;;;;29.58;32.24;100727.13;5035102;28;20470;-46
2021/07/04 03:51:33;;;;;;;12.50;9.83;;;;;;;29.85;31.93;100733.16;5033565;28;20477;-44
2021/07/04 03:54:01;;;;;;;10.10;8.43;;;;;;;29.80;32.32;100728.91;5035124;28;20459;-47
2021/07/04 03:56:29;;;;;;;12.70;9.20;;;;;;;29.77;32.15;100729.91;5033375;28;20465;-46
2021/07/04 03:58:57;;;;;;;14.00;9.97;;;;;;;30.17;31.96;100727.47;5034764;28;20463;-48
2021/07/04 04:01:24;;;;;;;12.93;9.77;;;;;;;30.13;32.22;100720.53;5033887;28;20465;-47
2021/07/04 04:03:52;;;;;;;11.43;9.27;;;;;;;30.52;31.54;100721.59;5035061;28;20808;-45
2021/07/04 04:06:20;;;;;;;15.37;8.77;;;;;;;30.37;31.30;100731.09;5033504;28;20460;-45
2021/07/04 04:08:48;;;;;;;10.60;8.40;;;;;;;30.38;31.57;100719.50;5037351;28;20464;-48
2021/07/04 04:11:17;;;;;;;9.87;8.10;;;;;;;30.48;31.88;100720.84;5037097;28;20485;-46
2021/07/04 04:13:44;;;;;;;9.73;8.20;;;;;;;30.65;31.27;100728.09;5040941;28;20483;-45
2021/07/04 04:16:12;;;;;;;11.20;8.03;;;;;;;30.76;31.02;100725.00;5039636;28;20454;-45
2021/07/04 04:18:39;;;;;;;10.47;7.97;;;;;;;30.94;30.96;100727.78;5038040;28;20939;-50
2021/07/04 04:21:09;;;;;;;9.37;7.20;;;;;;;30.97;30.75;100733.00;5037066;28;20765;-45
2021/07/04 04:23:36;;;;;;;10.97;8.30;;;;;;;31.22;30.64;100731.88;5037984;28;20962;-47
2021/07/04 04:26:04;;;;;;;10.13;7.63;;;;;;;30.88;30.80;100720.94;5037780;28;20465;-47
2021/07/04 04:28:33;;;;;;;12.63;7.67;;;;;;;30.99;31.05;100725.78;5037729;28;20494;-46
2021/07/04 04:31:01;;;;;;;9.60;7.43;;;;;;;31.24;30.61;100722.88;5037882;28;20483;-47
2021/07/04 04:33:28;;;;;;;9.73;7.00;;;;;;;31.12;30.65;100726.97;5036690;28;20481;-45
2021/07/04 04:35:56;;;;;;;10.73;7.73;;;;;;;31.22;30.78;100716.75;5037734;28;20473;-46
2021/07/04 04:38:23;;;;;;;9.27;6.77;;;;;;;31.37;30.27;100725.88;5036602;28;20930;-46
2021/07/04 04:40:51;;;;;;;10.40;7.70;;;;;;;31.59;29.80;100729.31;5038051;28;20484;-46
2021/07/04 04:43:19;;;;;;;9.37;7.07;;;;;;;30.20;32.29;100727.34;5036263;28;20926;-45
2021/07/04 04:45:48;;;;;;;10.43;7.67;;;;;;;31.20;30.84;100733.72;5037765;28;20471;-47
2021/07/04 04:48:15;;;;;;;8.53;6.80;;;;;;;31.34;30.69;100731.34;5037518;28;20570;-46
2021/07/04 04:50:43;;;;;;;10.00;6.97;;;;;;;31.52;30.47;100728.75;5037698;28;20487;-47
2021/07/04 04:53:10;;;;;;;12.00;6.40;;;;;;;31.71;30.33;100722.53;5036247;28;20479;-46
2021/07/04 04:55:38;;;;;;;8.80;6.27;;;;;;;30.24;32.39;100728.94;5037503;28;20502;-47
2021/07/04 04:58:05;;;;;;;11.37;7.10;;;;;;;30.10;32.95;100732.19;5036806;28;20483;-48
2021/07/04 05:00:33;;;;;;;9.63;7.30;;;;;;;30.21;33.00;100722.88;5037435;28;20495;-45
2021/07/04 05:03:06;;;;;;;12.40;7.00;;;;;;;30.04;33.34;100724.44;5036059;28;20534;-45
2021/07/04 05:05:34;;;;;;;9.80;7.17;;;;;;;30.29;33.25;100726.06;5037072;28;20466;-45
2021/07/04 05:08:03;;;;;;;10.00;7.13;;;;;;;30.14;33.44;100716.97;5036125;28;20520;-46
2021/07/04 05:10:31;;;;;;;10.03;6.33;;;;;;;30.41;33.29;100725.56;5037470;28;20475;-44
2021/07/04 05:12:58;;;;;;;8.87;6.50;;;;;;;30.31;33.38;100727.75;5036085;28;20500;-46
2021/07/04 05:15:26;;;;;;;8.87;6.10;;;;;;;30.47;33.38;100720.91;5036949;28;20460;-46
2021/07/04 05:17:53;;;;;;;7.83;6.20;;;;;;;30.89;32.56;100716.47;5035942;28;20482;-46
2021/07/04 05:20:22;;;;;;;8.20;5.50;;;;;;;30.87;32.67;100721.88;5037515;28;20490;-47
2021/07/04 05:22:50;;;;;;;9.43;6.80;;;;;;;31.49;32.11;100712.91;5035565;28;20484;-45
2021/07/04 05:25:18;;;;;;;7.97;6.37;;;;;;;32.53;30.23;100720.34;5037031;28;20458;-46
2021/07/04 05:27:45;;;;;;;7.13;6.10;;;;;;;30.88;32.53;100714.75;5035483;28;20562;-46
2021/07/04 05:30:14;;;;;;;9.63;6.00;;;;;;;30.99;32.66;100715.13;5036889;28;20482;-47
2021/07/04 05:32:42;;;;;;;10.83;6.60;;;;;;;31.12;32.60;100713.66;5035521;28;20483;-46
2021/07/04 05:35:11;;;;;;;8.07;5.67;;;;;;;31.18;32.38;100714.31;5037033;28;20474;-45
2021/07/04 05:37:40;;;;;;;8.43;6.10;;;;;;;31.60;31.81;100709.72;5035286;28;20487;-45
2021/07/04 05:40:13;;;;;;;6.97;5.63;;;;;;;31.39;32.12;100704.50;5036836;28;20586;-45
2021/07/04 05:42:40;;;;;;;10.00;6.37;;;;;;;31.51;32.09;100708.38;5035610;28;20477;-47
2021/07/04 05:45:11;;;;;;;8.50;5.67;;;;;;;31.80;31.89;100711.44;5036491;28;20494;-44
2021/07/04 05:47:39;;;;;;;11.00;6.00;;;;;;;31.37;32.68;100709.88;5035009;28;20498;-47
2021/07/04 05:50:07;;;;;;;9.73;6.30;;;;;;;31.53;32.43;100715.34;5036657;28;20482;-51
2021/07/04 05:52:35;;;;;;;8.90;5.47;;;;;;;31.84;31.51;100713.06;5035134;28;20483;-45
2021/07/04 05:55:05;;;;;;;7.47;6.00;;;;;;;32.04;31.60;100708.53;5036595;28;20772;-46
2021/07/04 05:57:32;;;;;;;6.83;5.27;;;;;;;31.60;32.38;100709.72;5034775;28;20494;-44
2021/07/04 06:00:00;;;;;;;8.20;5.33;;;;;;;31.36;32.59;100708.16;5036194;28;20486;-46
2021/07/04 06:02:27;;;;;;;8.77;5.23;;;;;;;31.80;31.99;100706.09;5035043;28;20488;-46
2021/07/04 06:04:55;;;;;;;6.43;4.70;;;;;;;32.18;31.66;100705.16;5036503;28;20467;-48
2021/07/04 06:07:22;;;;;;;6.40;4.80;;;;;;;31.20;32.47;100699.09;5034797;28;20801;-47
2021/07/04 06:09:50;;;;;;;10.80;5.10;;;;;;;31.44;32.96;100698.94;5041142;28;20480;-47
2021/07/04 06:12:19;;;;;;;6.73;5.40;;;;;;;32.38;31.35;100698.81;5034829;28;20494;-47
2021/07/04 06:14:46;;;;;;;7.70;5.23;;;;;;;32.79;30.93;100694.09;5036380;28;20460;-48
2021/07/04 06:17:14;;;;;;;7.80;5.30;;;;;;;32.81;30.84;100700.22;5034395;28;20502;-46
2021/07/04 06:19:42;;;;;;;7.90;4.90;;;;;;;32.56;31.05;100690.84;5035895;28;20944;-45
2021/07/04 06:22:09;;;;;;;6.97;4.73;;;;;;;32.58;30.70;100692.50;5034667;28;20478;-47
2021/07/04 06:24:37;;;;;;;5.37;4.10;;;;;;;32.85;30.67;100694.63;5035874;28;20474;-45
2021/07/04 06:27:05;;;;;;;8.33;5.33;;;;;;;33.14;30.34;100694.03;5034421;28;20488;-48
2021/07/04 06:29:34;;;;;;;6.83;4.30;;;;;;;32.99;30.26;100699.28;5035767;28;20493;-46
2021/07/04 06:32:02;;;;;;;7.63;4.60;;;;;;;31.91;31.66;100702.94;5034120;28;20553;-48
2021/07/04 06:34:30;;;;;;;9.03;5.00;;;;;;;32.86;30.60;100698.19;5035872;28;20560;-48
2021/07/04 06:36:57;;;;;;;6.10;4.40;;;;;;;32.73;30.10;100698.84;5034378;28;20483;-45
2021/07/04 06:39:25;;;;;;;7.20;4.20;;;;;;;32.66;30.72;100692.06;5035538;28;20478;-49
2021/07/04 06:41:52;;;;;;;6.50;4.80;;;;;;;33.54;29.55;100696.34;5027457;28;20478;-47
2021/07/04 06:44:20;;;;;;;5.43;4.27;;;;;;;33.71;29.60;100695.38;5052479;28;20466;-47
2021/07/04 06:46:49;;;;;;;6.10;4.10;;;;;;;32.98;30.49;100689.53;5054018;28;20482;-48
2021/07/04 06:49:16;;;;;;;8.33;5.00;;;;;;;33.37;29.98;100686.56;5055318;28;20494;-48
2021/07/04 06:51:44;;;;;;;7.00;4.70;;;;;;;33.40;29.80;100694.41;5054076;28;20475;-46
2021/07/04 06:54:11;;;;;;;8.33;5.13;;;;;;;33.69;29.44;100694.59;5055689;28;20463;-45
2021/07/04 06:56:39;;;;;;;8.50;5.77;;;;;;;33.60;29.76;100695.13;5053968;28;20467;-48
2021/07/04 06:59:07;;;;;;;7.83;5.10;;;;;;;34.07;29.18;100690.69;5055457;28;20452;-50
2021/07/04 07:01:34;;;;;;;6.93;4.67;;;;;;;34.17;28.56;100694.53;5054087;28;20567;-46
2021/07/04 07:04:04;;;;;;;7.97;5.43;;;;;;;34.26;28.49;100693.13;5055410;28;20451;-47
2021/07/04 07:06:31;;;;;;;12.30;5.30;;;;;;;34.58;27.95;100687.69;5053529;28;20471;-48
2021/07/04 07:08:59;;;;;;;7.27;4.70;;;;;;;34.39;27.65;100685.22;5055352;28;20491;-45
2021/07/04 07:11:26;;;;;;;13.13;5.10;;;;;;;33.90;28.60;100686.28;5054220;28;20483;-47
2021/07/04 07:13:54;;;;;;;5.67;4.23;;;;;;;34.57;27.87;100691.31;5055481;28;20780;-46
2021/07/04 07:16:21;;;;;;;6.43;3.67;;;;;;;34.63;27.72;100694.56;5053866;28;20467;-46
2021/07/04 07:18:49;;;;;;;6.50;4.30;;;;;;;34.27;27.67;100688.63;5055072;28;20455;-46
2021/07/04 07:21:18;;;;;;;11.73;5.87;;;;;;;34.70;27.52;100679.84;5054137;28;20475;-47
2021/07/04 07:23:45;;;;;;;11.43;5.77;;;;;;;34.87;26.53;100676.13;5055224;28;20796;-47
2021/07/04 07:26:13;;;;;;;15.40;9.67;;;;;;;34.77;26.83;100669.59;5053875;28;20463;-45
2021/07/04 07:28:40;;;;;;;6.30;4.60;;;;;;;33.86;27.49;100668.69;5054899;28;20855;-47
2021/07/04 07:31:08;;;;;;;69.20;42.83;;;;;;;34.53;26.86;100668.31;5053764;28;20487;-46
2021/07/04 07:33:36;;;;;;;65.60;41.50;;;;;;;34.43;27.25;100675.19;5054800;28;20523;-48
2021/07/04 07:36:04;;;;;;;7.90;5.07;;;;;;;33.99;27.86;100667.00;5055044;28;20455;-47
2021/07/04 07:38:33;;;;;;;12.20;7.60;;;;;;;34.34;27.38;100680.16;5054708;28;20466;-50
2021/07/04 07:41:00;;;;;;;6.73;4.47;;;;;;;33.88;27.54;100680.16;5055021;28;20767;-46
2021/07/04 07:43:28;;;;;;;5.57;4.00;;;;;;;33.29;28.19;100678.09;5055802;28;20789;-46
2021/07/04 07:45:55;;;;;;;34.47;21.50;;;;;;;34.23;27.77;100669.22;5058485;28;20486;-51
2021/07/04 07:48:23;;;;;;;32.80;21.20;;;;;;;34.94;26.97;100665.84;5057484;28;20489;-46
2021/07/04 07:50:50;;;;;;;13.30;8.47;;;;;;;35.34;26.02;100673.22;5058867;28;20479;-48
2021/07/04 07:53:18;;;;;;;6.70;4.23;;;;;;;33.42;27.89;100676.44;5057373;28;20928;-45
2021/07/04 07:55:49;;;;;;;11.00;4.10;;;;;;;34.56;26.62;100661.91;5058468;28;20471;-51
2021/07/04 07:58:16;;;;;;;7.73;4.03;;;;;;;34.28;26.43;100669.81;5057401;28;20478;-48
2021/07/04 08:00:44;;;;;;;10.83;4.40;;;;;;;34.33;26.95;100673.06;5058371;28;20795;-46
2021/07/04 08:03:13;;;;;;;6.83;4.27;;;;;;;35.19;25.80;100669.69;5057241;28;20794;-46
2021/07/04 08:05:40;;;;;;;5.90;4.40;;;;;;;34.96;26.45;100664.81;5054969;28;20465;-48
2021/07/04 08:08:08;;;;;;;18.53;11.73;;;;;;;35.72;25.91;100663.66;5053947;28;20460;-49
2021/07/04 08:10:37;;;;;;;10.53;7.10;;;;;;;35.85;25.11;100659.19;5058324;28;20903;-50
2021/07/04 08:13:06;;;;;;;11.27;4.80;;;;;;;36.04;24.80;100660.63;5056858;28;20487;-45
2021/07/04 08:15:34;;;;;;;8.30;5.77;;;;;;;35.74;24.77;100657.22;5057811;28;20521;-49
2021/07/04 08:18:02;;;;;;;10.93;6.73;;;;;;;36.12;25.14;100657.47;5056992;28;20468;-48
2021/07/04 08:20:32;;;;;;;8.30;5.57;;;;;;;35.37;25.49;100660.47;5058179;28;20479;-48
2021/07/04 08:22:59;;;;;;;6.63;4.93;;;;;;;35.08;26.21;100663.22;5056924;28;20487;-49
2021/07/04 08:25:27;;;;;;;7.83;5.47;;;;;;;35.87;24.70;100669.81;5057702;28;20463;-46
2021/07/04 08:27:54;;;;;;;8.47;5.60;;;;;;;35.40;25.49;100657.59;5056485;28;20515;-46
2021/07/04 08:30:23;;;;;;;12.60;9.00;;;;;;;36.36;24.77;100657.56;5057916;28;20479;-46
2021/07/04 08:32:51;;;;;;;8.67;5.10;;;;;;;35.81;25.32;100658.53;5056758;28;20786;-47
2021/07/04 08:35:18;;;;;;;7.60;4.90;;;;;;;35.16;25.53;100660.03;5058022;28;20455;-46
2021/07/04 08:37:46;;;;;;;6.80;5.10;;;;;;;35.35;25.19;100658.84;5056401;28;20483;-46
2021/07/04 08:40:15;;;;;;;8.20;4.80;;;;;;;35.25;25.15;100650.53;5057770;28;20476;-48
2021/07/04 08:42:43;;;;;;;8.27;4.60;;;;;;;34.26;26.06;100653.00;5056461;28;20583;-49
2021/07/04 08:45:11;;;;;;;9.63;5.00;;;;;;;34.64;25.67;100648.09;5057906;28;20456;-45
2021/07/04 08:47:40;;;;;;;10.40;7.60;;;;;;;35.91;24.78;100655.22;5056106;28;20489;-46
2021/07/04 08:50:12;;;;;;;12.60;5.50;;;;;;;36.14;25.13;100642.94;5057519;28;20487;-48
2021/07/04 08:52:40;;;;;;;10.10;7.80;;;;;;;35.81;25.53;100645.13;5053056;28;20483;-47
2021/07/04 08:55:10;;;;;;;7.97;5.17;;;;;;;34.71;26.27;100638.72;5057283;28;20452;-46
2021/07/04 08:57:38;;;;;;;7.67;4.83;;;;;;;35.57;24.65;100636.84;5055959;28;20522;-46
2021/07/04 09:00:08;;;;;;;7.47;4.10;;;;;;;35.25;25.25;100637.13;5057450;28;20483;-47
2021/07/04 09:02:38;;;;;;;7.33;4.60;;;;;;;34.64;25.92;100632.03;5056257;28;20563;-47
2021/07/04 09:05:09;;;;;;;7.83;4.43;;;;;;;34.98;26.53;100643.28;5057434;28;20460;-47
2021/07/04 09:07:38;;;;;;;6.33;4.80;;;;;;;35.29;25.66;100627.94;5055725;28;20476;-48
2021/07/04 09:10:09;;;;;;;7.90;5.10;;;;;;;35.23;25.73;100636.38;5057407;28;20488;-45
2021/07/04 09:12:39;;;;;;;6.57;5.03;;;;;;;34.79;25.79;100635.56;5056063;28;20483;-45
2021/07/04 09:15:14;;;;;;;10.50;5.00;;;;;;;35.44;24.38;100627.88;5057395;28;20789;-47
2021/07/04 09:17:44;;;;;;;8.60;5.00;;;;;;;35.66;24.41;100638.94;5055363;28;20487;-49
2021/07/04 09:20:16;;;;;;;9.03;5.00;;;;;;;36.26;23.94;100633.19;5057282;28;20475;-46
2021/07/04 09:22:46;;;;;;;7.17;4.73;;;;;;;36.37;24.10;100629.75;5055857;28;20566;-48
2021/07/04 09:25:15;;;;;;;7.30;5.40;;;;;;;35.74;24.73;100637.56;5057130;28;20467;-50
2021/07/04 09:27:45;;;;;;;7.23;5.33;;;;;;;35.85;23.59;100629.66;5055343;28;20570;-49
2021/07/04 09:30:16;;;;;;;7.77;5.27;;;;;;;36.65;23.43;100626.97;5056658;28;20518;-47
2021/07/04 09:32:49;;;;;;;10.13;5.13;;;;;;;36.30;24.29;100628.47;5055637;28;20510;-48
2021/07/04 09:35:20;;;;;;;9.90;6.83;;;;;;;36.40;24.27;100624.19;5056948;28;20455;-47
2021/07/04 09:37:51;;;;;;;7.80;5.60;;;;;;;36.93;23.32;100630.34;5055642;28;20502;-48
2021/07/04 09:40:21;;;;;;;20.90;13.67;;;;;;;36.98;23.01;100625.50;5056748;28;20478;-46
2021/07/04 09:43:03;;;;;;;12.60;7.33;;;;;;;36.99;22.78;100629.91;5055396;28;20479;-47
2021/07/04 09:45:43;;;;;;;9.30;5.60;;;;;;;36.14;24.05;100626.84;5056285;28;20466;-52
2021/07/04 09:48:10;;;;;;;8.27;5.13;;;;;;;36.40;23.91;100626.88;5055286;28;20487;-47
2021/07/04 09:50:41;;;;;;;8.80;5.77;;;;;;;36.46;23.73;100618.38;5056423;28;20480;-46
2021/07/04 09:53:13;;;;;;;8.43;5.57;;;;;;;36.31;23.66;100616.75;5055184;28;20573;-46
2021/07/04 09:55:42;;;;;;;8.27;5.80;;;;;;;37.45;23.16;100622.16;5055954;28;20468;-49
2021/07/04 09:58:11;;;;;;;10.73;6.10;;;;;;;35.42;24.43;100620.81;5055047;28;20497;-47
2021/07/04 10:00:40;;;;;;;8.63;6.10;;;;;;;35.97;23.93;100614.53;5056050;28;20968;-48
2021/07/04 10:03:11;;;;;;;8.50;5.63;;;;;;;36.48;23.36;100615.56;5054866;28;20927;-50
2021/07/04 10:05:41;;;;;;;8.93;6.50;;;;;;;37.23;22.95;100605.81;5055029;28;20456;-46
2021/07/04 10:08:23;;;;;;;7.50;5.50;;;;;;;37.64;22.46;100606.38;5051849;28;20482;-47
2021/07/04 10:10:52;;;;;;;7.87;5.70;;;;;;;36.49;24.00;100607.41;5056052;28;20494;-47
2021/07/04 10:13:19;;;;;;;8.93;6.33;;;;;;;35.51;23.72;100600.56;5054731;28;20480;-46
2021/07/04 10:15:47;;;;;;;9.70;6.20;;;;;;;36.24;23.20;100607.41;5055704;28;20482;-49
2021/07/04 10:18:16;;;;;;;11.20;5.67;;;;;;;37.78;22.47;100602.63;5054648;28;20510;-46
2021/07/04 10:20:45;;;;;;;7.87;5.70;;;;;;;38.02;21.84;100603.56;5056044;28;20472;-48
2021/07/04 10:23:14;;;;;;;12.17;5.77;;;;;;;36.17;23.64;100598.91;5054500;28;20468;-46
2021/07/04 10:25:43;;;;;;;10.60;7.00;;;;;;;36.37;22.73;100602.03;5055338;28;20478;-48
2021/07/04 10:28:12;;;;;;;9.57;5.93;;;;;;;37.47;21.82;100598.69;5054508;28;20476;-46
2021/07/04 10:30:41;;;;;;;10.47;6.93;;;;;;;37.48;21.28;100598.59;5055509;28;20484;-47
2021/07/04 10:33:16;;;;;;;16.83;10.60;;;;;;;37.21;22.43;100596.97;5054506;28;20781;-50
2021/07/04 10:35:52;;;;;;;9.67;6.17;;;;;;;36.45;23.47;100594.31;5055184;28;20458;-49
2021/07/04 10:38:20;;;;;;;7.40;5.37;;;;;;;35.81;24.32;100593.28;5054466;28;20478;-46
2021/07/04 10:40:47;;;;;;;8.70;5.93;;;;;;;36.28;23.50;100593.66;5055551;28;20775;-46
2021/07/04 10:43:48;;;;;;;9.83;6.23;;;;;;;36.42;22.36;100590.03;5054283;28;20484;-46
2021/07/04 10:46:16;;;;;;;8.40;6.33;;;;;;;37.12;22.02;100587.75;5049003;28;20468;-48
2021/07/04 10:48:53;;;;;;;9.70;6.83;;;;;;;37.75;22.27;100589.41;5045613;28;20476;-47
2021/07/04 10:51:23;;;;;;;19.03;11.77;;;;;;;37.63;22.27;100585.81;5040069;28;20784;-51
2021/07/04 10:53:58;;;;;;;15.77;9.07;;;;;;;37.51;22.99;100586.75;5068693;28;20971;-46
2021/07/04 10:56:37;;;;;;;10.73;7.93;;;;;;;37.37;23.11;100577.84;5021818;28;20463;-47
2021/07/04 10:59:08;;;;;;;11.50;7.57;;;;;;;37.21;23.30;100574.63;5035495;28;20464;-48
2021/07/04 11:01:55;;;;;;;9.87;7.00;;;;;;;37.56;22.79;100569.28;5033846;28;20924;-46
2021/07/04 11:04:52;;;;;;;39.70;25.60;;;;;;;38.19;23.01;100568.09;5035201;28;20456;-50
2021/07/04 11:07:21;;;;;;;10.30;6.87;;;;;;;37.52;22.94;100573.16;5033785;28;20483;-48
2021/07/04 11:10:19;;;;;;;11.80;7.70;;;;;;;37.49;22.43;100573.41;5035052;28;20500;-46
2021/07/04 11:12:47;;;;;;;9.30;6.67;;;;;;;35.45;24.36;100570.63;5033839;28;20479;-45
2021/07/04 11:15:28;;;;;;;14.93;10.43;;;;;;;37.33;22.80;100572.84;5035184;28;20777;-46
2021/07/04 11:18:09;;;;;;;16.43;8.87;;;;;;;37.79;23.24;100572.06;5036919;28;20490;-50
2021/07/04 11:20:56;;;;;;;25.23;17.43;;;;;;;37.83;23.08;100570.84;5039298;28;20487;-47
2021/07/04 11:23:26;;;;;;;19.70;12.97;;;;;;;37.53;23.92;100571.34;5038003;28;20495;-46
2021/07/04 11:25:56;;;;;;;15.03;10.80;;;;;;;37.89;23.52;100563.28;5039017;28;20776;-51